createdAt,value
2022-10-18T00:00:58.405Z,90.63
2022-10-18T00:03:26.749Z,90.70
2022-10-18T00:05:54.995Z,90.95
2022-10-18T00:08:22.954Z,90.77
2022-10-18T00:10:51.642Z,90.85
2022-10-18T00:13:21.648Z,90.95
2022-10-18T00:15:51.338Z,90.74
2022-10-18T00:18:19.670Z,90.64
2022-10-18T00:20:56.858Z,91.29
2022-10-18T00:23:24.834Z,91.60
2022-10-18T00:26:00.462Z,91.68
2022-10-18T00:28:29.855Z,91.64
2022-10-18T00:30:57.931Z,91.92
2022-10-18T00:33:25.935Z,92.03
2022-10-18T00:35:53.827Z,92.06
2022-10-18T00:38:21.738Z,91.96
2022-10-18T00:40:49.729Z,91.86
2022-10-18T00:43:19.290Z,91.91
2022-10-18T00:45:48.598Z,91.97
2022-10-18T00:48:18.440Z,91.93
2022-10-18T00:50:47.718Z,91.91
2022-10-18T00:53:18.922Z,92.10
2022-10-18T00:55:47.367Z,92.43
2022-10-18T00:58:18.302Z,92.20
2022-10-18T01:00:46.258Z,92.37
2022-10-18T01:03:15.625Z,92.35
2022-10-18T01:05:46.495Z,92.56
2022-10-18T01:08:33.622Z,93.00
2022-10-18T01:11:19.601Z,92.95
2022-10-18T01:14:01.472Z,92.83
2022-10-18T01:16:36.670Z,92.97
2022-10-18T01:19:20.725Z,92.57
2022-10-18T01:21:53.620Z,92.75
2022-10-18T01:25:00.391Z,93.70
2022-10-18T01:27:48.366Z,93.88
2022-10-18T01:30:39.193Z,93.19
2022-10-18T01:33:16.195Z,95.04
2022-10-18T01:35:54.740Z,96.14
2022-10-18T01:38:26.484Z,95.83
2022-10-18T01:40:57.213Z,95.08
2022-10-18T01:43:27.646Z,94.78
2022-10-18T01:46:00.046Z,94.74
2022-10-18T01:48:28.265Z,93.98
2022-10-18T01:50:56.173Z,93.92
2022-10-18T01:53:29.782Z,93.75
2022-10-18T01:56:12.315Z,93.86
2022-10-18T01:58:48.397Z,94.08
2022-10-18T02:01:24.719Z,93.96
2022-10-18T02:03:59.690Z,93.76
2022-10-18T02:06:32.829Z,94.21
2022-10-18T02:09:07.054Z,94.07
2022-10-18T02:11:37.865Z,93.91
2022-10-18T02:14:10.475Z,93.79
2022-10-18T02:16:43.138Z,94.04
2022-10-18T02:19:17.052Z,93.95
2022-10-18T02:21:47.808Z,94.13
2022-10-18T02:24:16.477Z,94.22
2022-10-18T02:26:44.971Z,94.07
2022-10-18T02:29:13.287Z,94.06
2022-10-18T02:31:46.428Z,93.98
2022-10-18T02:34:21.482Z,93.58
2022-10-18T02:36:54.204Z,93.61
2022-10-18T02:39:26.469Z,93.69
2022-10-18T02:41:55.483Z,94.05
2022-10-18T02:44:23.476Z,93.92
2022-10-18T02:46:53.088Z,93.96
2022-10-18T02:49:21.092Z,93.54
2022-10-18T02:51:49.016Z,94.08
2022-10-18T02:54:17.242Z,94.26
2022-10-18T02:56:45.233Z,94.20
2022-10-18T02:59:13.359Z,94.43
2022-10-18T03:01:41.428Z,94.08
2022-10-18T03:04:10.905Z,94.34
2022-10-18T03:06:39.019Z,94.38
2022-10-18T03:09:07.944Z,94.11
2022-10-18T03:11:35.851Z,94.45
2022-10-18T03:14:03.836Z,94.56
2022-10-18T03:16:31.990Z,94.64
2022-10-18T03:18:59.881Z,94.71
2022-10-18T03:21:29.194Z,94.64
2022-10-18T03:23:58.664Z,94.97
2022-10-18T03:26:26.813Z,95.22
2022-10-18T03:28:54.871Z,94.88
2022-10-18T03:31:23.138Z,95.04
2022-10-18T03:33:51.124Z,94.89
2022-10-18T03:36:19.100Z,95.29
2022-10-18T03:38:48.411Z,95.31
2022-10-18T03:41:16.389Z,95.17
2022-10-18T03:43:44.324Z,94.84
2022-10-18T03:46:12.338Z,96.10
2022-10-18T03:48:40.507Z,96.32
2022-10-18T03:51:08.491Z,96.03
2022-10-18T03:53:36.510Z,95.98
2022-10-18T03:56:06.195Z,95.73
2022-10-18T04:01:07.154Z,95.20
2022-10-18T04:03:35.139Z,95.04
2022-10-18T04:06:03.743Z,96.03
2022-10-18T04:08:31.645Z,96.23
2022-10-18T04:10:59.582Z,96.22
2022-10-18T04:13:28.929Z,96.17
2022-10-18T04:15:56.875Z,95.61
2022-10-18T04:18:24.808Z,95.70
2022-10-18T04:20:52.754Z,96.12
2022-10-18T04:23:20.667Z,96.10
2022-10-18T04:25:48.832Z,96.00
2022-10-18T04:28:16.756Z,96.18
2022-10-18T04:30:51.166Z,95.97
2022-10-18T04:33:19.154Z,95.33
2022-10-18T04:35:47.545Z,95.10
2022-10-18T04:38:15.614Z,95.80
2022-10-18T04:40:43.518Z,97.14
2022-10-18T04:43:11.444Z,96.79
2022-10-18T04:45:39.406Z,96.29
2022-10-18T04:48:08.981Z,96.02
2022-10-18T04:50:37.077Z,96.20
2022-10-18T04:53:15.229Z,96.22
2022-10-18T04:55:45.263Z,96.21
2022-10-18T04:58:13.379Z,96.63
2022-10-18T05:00:42.076Z,97.07
2022-10-18T05:03:13.901Z,97.24
2022-10-18T05:06:00.803Z,97.17
2022-10-18T05:08:29.947Z,97.12
2022-10-18T05:10:57.923Z,96.87
2022-10-18T05:13:26.054Z,96.70
2022-10-18T05:15:54.118Z,96.80
2022-10-18T05:18:23.519Z,96.85
2022-10-18T05:20:51.482Z,96.72
2022-10-18T05:23:19.367Z,97.00
2022-10-18T05:25:47.819Z,96.62
2022-10-18T05:28:38.090Z,96.51
2022-10-18T05:31:04.640Z,96.72
2022-10-18T05:33:34.497Z,96.53
2022-10-18T05:36:02.457Z,96.32
2022-10-18T05:38:31.521Z,96.43
2022-10-18T05:40:59.769Z,96.08
2022-10-18T05:43:28.984Z,95.86
2022-10-18T05:45:56.962Z,95.94
2022-10-18T05:48:25.190Z,95.53
2022-10-18T05:50:54.614Z,95.33
2022-10-18T05:53:36.116Z,95.27
2022-10-18T05:56:04.661Z,95.70
2022-10-18T05:58:32.682Z,96.02
2022-10-18T06:01:01.156Z,95.44
2022-10-18T06:03:30.929Z,95.05
2022-10-18T06:06:03.968Z,94.38
2022-10-18T06:08:32.275Z,94.00
2022-10-18T06:11:00.566Z,94.13
2022-10-18T06:13:31.119Z,94.52
2022-10-18T06:16:00.565Z,94.67
2022-10-18T06:18:29.912Z,94.90
2022-10-18T06:20:59.270Z,95.39
2022-10-18T06:23:29.163Z,95.66
2022-10-18T06:26:00.417Z,95.68
2022-10-18T06:28:29.099Z,95.99
2022-10-18T06:30:57.112Z,95.93
2022-10-18T06:33:25.445Z,95.98
2022-10-18T06:35:58.259Z,95.64
2022-10-18T06:38:28.444Z,95.79
2022-10-18T06:40:57.463Z,95.98
2022-10-18T06:43:25.966Z,95.58
2022-10-18T06:45:54.945Z,95.92
2022-10-18T06:48:23.799Z,95.79
2022-10-18T06:50:56.991Z,96.56
2022-10-18T06:53:25.490Z,97.08
2022-10-18T06:56:00.863Z,96.36
2022-10-18T06:58:29.124Z,96.27
2022-10-18T07:00:57.475Z,95.65
2022-10-18T07:03:26.193Z,95.47
2022-10-18T07:05:54.098Z,95.30
2022-10-18T07:08:22.007Z,94.74
2022-10-18T07:10:54.849Z,93.82
2022-10-18T07:13:32.885Z,93.64
2022-10-18T07:16:03.373Z,93.71
2022-10-18T07:18:31.312Z,93.56
2022-10-18T07:21:01.727Z,93.58
2022-10-18T07:23:29.722Z,93.21
2022-10-18T07:25:59.059Z,93.03
2022-10-18T07:28:27.055Z,93.21
2022-10-18T07:30:55.117Z,92.77
2022-10-18T07:33:23.524Z,92.56
2022-10-18T07:35:51.440Z,93.92
2022-10-18T07:38:19.757Z,95.28
2022-10-18T07:40:47.678Z,95.58
2022-10-18T07:43:17.008Z,95.20
2022-10-18T07:45:53.000Z,93.85
2022-10-18T07:48:20.991Z,93.39
2022-10-18T07:50:48.991Z,93.28
2022-10-18T07:53:17.068Z,93.02
2022-10-18T07:55:45.031Z,92.42
2022-10-18T07:58:13.357Z,92.07
2022-10-18T08:00:42.831Z,92.13
2022-10-18T08:03:10.730Z,91.77
2022-10-18T08:05:38.672Z,91.90
2022-10-18T08:08:08.109Z,91.74
2022-10-18T08:10:37.255Z,92.11
2022-10-18T08:13:05.155Z,91.67
2022-10-18T08:15:33.047Z,91.30
2022-10-18T08:18:02.370Z,91.01
2022-10-18T08:20:31.335Z,91.22
2022-10-18T08:23:00.594Z,90.96
2022-10-18T08:25:29.322Z,90.85
2022-10-18T08:27:57.344Z,90.87
2022-10-18T08:30:25.333Z,90.59
2022-10-18T08:32:53.262Z,90.33
2022-10-18T08:35:22.570Z,90.04
2022-10-18T08:37:51.308Z,89.53
2022-10-18T08:40:20.340Z,88.96
2022-10-18T08:43:07.353Z,87.43
2022-10-18T08:45:42.783Z,87.45
2022-10-18T08:48:25.177Z,86.07
2022-10-18T08:50:57.463Z,86.48
2022-10-18T08:53:29.937Z,86.06
2022-10-18T08:56:04.924Z,86.02
2022-10-18T08:58:34.513Z,85.97
2022-10-18T09:01:15.601Z,86.05
2022-10-18T09:04:22.120Z,85.92
2022-10-18T09:07:01.108Z,86.13
2022-10-18T09:09:37.766Z,86.25
2022-10-18T09:12:21.592Z,86.65
2022-10-18T09:15:11.469Z,86.39
2022-10-18T09:17:49.582Z,86.05
2022-10-18T09:20:24.330Z,86.30
2022-10-18T09:23:00.381Z,86.54
2022-10-18T09:25:36.243Z,85.09
2022-10-18T09:28:17.107Z,84.12
2022-10-18T09:30:58.672Z,84.24
2022-10-18T09:33:36.071Z,84.12
2022-10-18T09:36:07.100Z,83.71
2022-10-18T09:38:45.494Z,83.02
2022-10-18T09:41:20.197Z,82.64
2022-10-18T09:43:53.321Z,81.22
2022-10-18T09:46:26.343Z,80.50
2022-10-18T09:48:58.068Z,80.71
2022-10-18T09:51:30.660Z,80.84
2022-10-18T09:54:16.413Z,80.07
2022-10-18T09:56:48.828Z,79.17
2022-10-18T09:59:32.945Z,77.43
2022-10-18T10:02:00.973Z,76.94
2022-10-18T10:04:29.259Z,75.62
2022-10-18T10:07:00.375Z,74.67
2022-10-18T10:09:32.425Z,74.92
2022-10-18T10:12:00.427Z,74.75
2022-10-18T10:14:30.789Z,74.00
2022-10-18T10:17:02.535Z,73.56
2022-10-18T10:19:34.605Z,73.20
2022-10-18T10:22:07.190Z,72.45
2022-10-18T10:24:45.067Z,71.30
2022-10-18T10:27:19.921Z,71.05
2022-10-18T10:30:04.168Z,70.32
2022-10-18T10:32:46.754Z,70.73
2022-10-18T10:35:35.273Z,70.75
2022-10-18T10:38:24.170Z,68.63
2022-10-18T10:40:53.914Z,70.38
2022-10-18T10:43:37.658Z,69.89
2022-10-18T10:46:09.970Z,69.92
2022-10-18T10:48:46.740Z,70.37
2022-10-18T10:51:17.265Z,70.13
2022-10-18T10:53:51.012Z,69.99
2022-10-18T10:56:25.863Z,69.03
2022-10-18T10:58:55.435Z,69.15
2022-10-18T11:01:27.109Z,69.14
2022-10-18T11:03:58.085Z,69.83
2022-10-18T11:06:50.202Z,69.73
2022-10-18T11:09:28.090Z,69.13
2022-10-18T11:12:19.573Z,68.55
2022-10-18T11:14:53.750Z,69.57
2022-10-18T11:17:28.412Z,69.35
2022-10-18T11:20:16.607Z,69.70
2022-10-18T11:22:50.518Z,69.65
2022-10-18T11:25:19.149Z,68.64
2022-10-18T11:27:57.288Z,68.04
2022-10-18T11:30:42.880Z,67.49
2022-10-18T11:33:32.619Z,67.58
2022-10-18T11:36:11.703Z,67.88
2022-10-18T11:38:49.443Z,69.67
2022-10-18T11:41:32.344Z,68.41
2022-10-18T11:44:04.227Z,68.17
2022-10-18T11:46:47.050Z,67.26
2022-10-18T11:49:33.021Z,69.26
2022-10-18T11:52:09.471Z,68.22
2022-10-18T11:54:59.392Z,66.86
2022-10-18T11:57:41.342Z,67.43
2022-10-18T12:00:23.761Z,67.90
2022-10-18T12:03:12.147Z,67.19
2022-10-18T12:05:42.536Z,67.58
2022-10-18T12:08:15.962Z,67.88
2022-10-18T12:11:03.933Z,68.11
2022-10-18T12:13:38.954Z,68.17
2022-10-18T12:16:10.543Z,67.10
2022-10-18T12:18:48.359Z,67.75
2022-10-18T12:21:24.524Z,67.26
2022-10-18T12:23:56.778Z,66.65
2022-10-18T12:26:25.694Z,67.37
2022-10-18T12:29:04.047Z,67.11
2022-10-18T12:31:39.128Z,66.50
2022-10-18T12:34:29.288Z,65.90
2022-10-18T12:37:15.593Z,67.47
2022-10-18T12:40:08.653Z,66.59
2022-10-18T12:42:41.275Z,66.24
2022-10-18T12:45:25.407Z,63.54
2022-10-18T12:47:55.218Z,65.40
2022-10-18T12:50:30.532Z,64.43
2022-10-18T12:53:18.837Z,66.68
2022-10-18T12:55:48.863Z,66.32
2022-10-18T12:58:29.922Z,65.07
2022-10-18T13:01:06.731Z,66.43
2022-10-18T13:03:58.685Z,65.64
2022-10-18T13:06:27.304Z,65.33
2022-10-18T13:09:22.776Z,65.10
2022-10-18T13:11:52.322Z,64.96
2022-10-18T13:14:59.082Z,64.32
2022-10-18T13:17:41.089Z,63.83
2022-10-18T13:20:27.339Z,65.65
2022-10-18T13:23:10.430Z,63.42
2022-10-18T13:25:52.835Z,65.37
2022-10-18T13:28:30.222Z,63.07
2022-10-18T13:31:09.501Z,63.62
2022-10-18T13:33:40.860Z,62.60
2022-10-18T13:36:23.591Z,62.27
2022-10-18T13:39:05.890Z,63.26
2022-10-18T13:41:57.431Z,63.38
2022-10-18T13:44:30.558Z,63.04
2022-10-18T13:47:40.111Z,61.92
2022-10-18T13:50:33.187Z,62.60
2022-10-18T13:53:43.011Z,63.59
2022-10-18T13:56:33.505Z,63.51
2022-10-18T13:59:19.532Z,64.46
2022-10-18T14:02:01.215Z,64.41
2022-10-18T14:04:48.081Z,63.63
2022-10-18T14:07:20.129Z,63.17
2022-10-18T14:09:56.165Z,62.23
2022-10-18T14:12:32.241Z,62.70
2022-10-18T14:15:06.238Z,62.18
2022-10-18T14:17:41.001Z,62.48
2022-10-18T14:20:19.895Z,62.97
2022-10-18T14:22:52.186Z,62.12
2022-10-18T14:25:24.064Z,62.76
2022-10-18T14:28:07.751Z,61.67
2022-10-18T14:30:37.280Z,61.15
2022-10-18T14:33:05.636Z,61.04
2022-10-18T14:35:35.897Z,62.14
2022-10-18T14:38:04.074Z,61.37
2022-10-18T14:40:39.191Z,60.35
2022-10-18T14:43:12.376Z,60.91
2022-10-18T14:45:41.141Z,60.44
2022-10-18T14:48:15.783Z,60.70
2022-10-18T14:50:45.620Z,59.42
2022-10-18T14:53:18.520Z,58.72
2022-10-18T14:55:56.534Z,59.72
2022-10-18T14:58:24.746Z,59.84
2022-10-18T15:00:52.707Z,59.15
2022-10-18T15:03:20.828Z,59.34
2022-10-18T15:05:57.747Z,59.77
2022-10-18T15:08:27.572Z,59.58
2022-10-18T15:10:57.688Z,60.76
2022-10-18T15:13:26.537Z,60.23
2022-10-18T15:15:55.339Z,59.30
2022-10-18T15:18:25.657Z,59.52
2022-10-18T15:21:22.268Z,60.19
2022-10-18T15:23:50.475Z,60.34
2022-10-18T15:26:26.617Z,62.90
2022-10-18T15:29:00.435Z,60.66
2022-10-18T15:31:34.691Z,60.05
2022-10-18T15:34:10.772Z,59.31
2022-10-18T15:36:39.173Z,60.52
2022-10-18T15:39:09.450Z,61.63
2022-10-18T15:41:41.136Z,61.68
2022-10-18T15:44:19.348Z,61.89
2022-10-18T15:46:48.658Z,62.70
2022-10-18T15:49:52.104Z,61.96
2022-10-18T15:52:39.439Z,61.69
2022-10-18T15:55:45.188Z,62.08
2022-10-18T15:58:18.990Z,62.00
2022-10-18T16:00:48.184Z,62.87
2022-10-18T16:03:17.121Z,62.38
2022-10-18T16:05:45.339Z,62.57
2022-10-18T16:08:25.634Z,61.93
2022-10-18T16:10:53.902Z,62.59
2022-10-18T16:13:23.270Z,63.48
2022-10-18T16:15:51.613Z,63.53
2022-10-18T16:18:21.331Z,63.66
2022-10-18T16:20:49.696Z,63.75
2022-10-18T16:23:20.738Z,63.65
2022-10-18T16:25:48.972Z,64.71
2022-10-18T16:28:19.853Z,66.31
2022-10-18T16:30:54.724Z,67.92
2022-10-18T16:33:22.774Z,68.66
2022-10-18T16:35:50.909Z,69.32
2022-10-18T16:38:32.835Z,70.27
2022-10-18T16:41:04.266Z,70.97
2022-10-18T16:43:32.549Z,71.26
2022-10-18T16:46:03.278Z,71.70
2022-10-18T16:48:31.596Z,72.14
2022-10-18T16:51:00.132Z,72.29
2022-10-18T16:53:28.767Z,72.54
2022-10-18T16:55:59.011Z,72.43
2022-10-18T16:58:28.220Z,73.59
2022-10-18T17:00:56.779Z,73.46
2022-10-18T17:03:26.491Z,73.83
2022-10-18T17:05:56.337Z,74.29
2022-10-18T17:08:26.052Z,74.46
2022-10-18T17:10:56.203Z,74.88
2022-10-18T17:13:25.666Z,74.63
2022-10-18T17:15:53.683Z,75.06
2022-10-18T17:18:26.323Z,75.21
2022-10-18T17:20:56.637Z,74.95
2022-10-18T17:23:24.571Z,75.26
2022-10-18T17:26:05.552Z,76.00
2022-10-18T17:28:38.389Z,76.16
2022-10-18T17:31:07.644Z,76.49
2022-10-18T17:33:35.668Z,76.82
2022-10-18T17:36:05.342Z,77.03
2022-10-18T17:38:33.373Z,77.34
2022-10-18T17:41:06.423Z,77.44
2022-10-18T17:43:34.358Z,77.39
2022-10-18T17:46:02.313Z,77.84
2022-10-18T17:48:30.252Z,78.02
2022-10-18T17:50:58.562Z,77.88
2022-10-18T17:53:29.208Z,78.20
2022-10-18T17:56:02.538Z,78.46
2022-10-18T17:58:31.338Z,78.25
2022-10-18T18:00:59.622Z,78.40
2022-10-18T18:03:27.677Z,78.40
2022-10-18T18:05:55.652Z,77.96
2022-10-18T18:08:25.524Z,77.94
2022-10-18T18:10:56.612Z,77.65
2022-10-18T18:13:24.574Z,77.17
2022-10-18T18:15:52.480Z,77.14
2022-10-18T18:18:20.418Z,76.52
2022-10-18T18:20:54.481Z,76.46
2022-10-18T18:23:23.306Z,77.10
2022-10-18T18:25:57.674Z,76.70
2022-10-18T18:28:25.731Z,76.63
2022-10-18T18:30:53.620Z,76.91
2022-10-18T18:33:21.542Z,76.87
2022-10-18T18:35:56.350Z,77.36
2022-10-18T18:38:24.632Z,77.90
2022-10-18T18:41:05.076Z,77.99
2022-10-18T18:43:33.145Z,79.04
2022-10-18T18:46:01.197Z,79.34
2022-10-18T18:48:29.768Z,79.76
2022-10-18T18:50:57.751Z,80.23
2022-10-18T18:53:28.692Z,80.08
2022-10-18T18:56:02.865Z,80.20
2022-10-18T18:58:32.274Z,80.21
2022-10-18T19:01:00.287Z,80.60
2022-10-18T19:03:28.236Z,80.04
2022-10-18T19:06:03.902Z,80.60
2022-10-18T19:08:31.818Z,80.47
2022-10-18T19:10:59.743Z,80.26
2022-10-18T19:13:27.657Z,79.71
2022-10-18T19:16:20.610Z,79.46
2022-10-18T19:18:53.562Z,79.38
2022-10-18T19:21:22.434Z,78.79
2022-10-18T19:23:50.961Z,79.10
2022-10-18T19:26:32.078Z,79.01
2022-10-18T19:29:08.635Z,78.58
2022-10-18T19:31:38.954Z,78.99
2022-10-18T19:34:09.078Z,78.76
2022-10-18T19:36:37.826Z,78.84
2022-10-18T19:39:07.390Z,78.89
2022-10-18T19:41:35.719Z,78.87
2022-10-18T19:44:03.781Z,79.04
2022-10-18T19:46:31.760Z,79.20
2022-10-18T19:49:01.063Z,79.17
2022-10-18T19:51:29.150Z,79.12
2022-10-18T19:53:57.730Z,79.44
2022-10-18T19:56:27.479Z,79.22
2022-10-18T19:58:55.691Z,79.20
2022-10-18T20:01:24.267Z,78.65
2022-10-18T20:03:52.347Z,78.14
2022-10-18T20:06:21.964Z,78.14
2022-10-18T20:08:50.107Z,78.12
2022-10-18T20:11:20.033Z,77.90
2022-10-18T20:13:48.260Z,77.81
2022-10-18T20:16:18.325Z,77.71
2022-10-18T20:18:46.323Z,77.59
2022-10-18T20:21:17.154Z,77.49
2022-10-18T20:23:46.591Z,77.34
2022-10-18T20:26:18.211Z,77.41
2022-10-18T20:28:49.181Z,77.75
2022-10-18T20:31:19.517Z,77.86
2022-10-18T20:33:49.244Z,78.27
2022-10-18T20:36:19.328Z,77.75
2022-10-18T20:38:49.668Z,77.78
2022-10-18T20:41:22.538Z,77.85
2022-10-18T20:43:53.895Z,78.06
2022-10-18T20:46:21.866Z,78.50
2022-10-18T20:48:50.487Z,78.17
2022-10-18T20:51:18.930Z,77.56
2022-10-18T20:53:48.299Z,77.18
2022-10-18T20:56:20.411Z,76.99
2022-10-18T20:58:50.919Z,76.80
2022-10-18T21:01:20.933Z,76.73
2022-10-18T21:03:50.747Z,76.27
2022-10-18T21:06:19.930Z,76.05
2022-10-18T21:08:54.048Z,76.15
2022-10-18T21:11:22.546Z,76.58
2022-10-18T21:13:52.070Z,76.40
2022-10-18T21:16:20.101Z,76.27
2022-10-18T21:18:48.833Z,76.79
2022-10-18T21:21:18.491Z,76.88
2022-10-18T21:23:47.177Z,77.12
2022-10-18T21:26:18.284Z,77.41
2022-10-18T21:28:47.199Z,77.78
2022-10-18T21:31:18.022Z,77.65
2022-10-18T21:33:47.359Z,77.86
2022-10-18T21:36:15.968Z,77.98
2022-10-18T21:38:45.578Z,77.89
2022-10-18T21:41:16.791Z,77.86
2022-10-18T21:43:46.728Z,77.90
2022-10-18T21:46:15.880Z,78.15
2022-10-18T21:48:45.457Z,78.08
2022-10-18T21:51:15.850Z,78.43
2022-10-18T21:53:44.936Z,78.43
2022-10-18T21:56:17.610Z,78.47
2022-10-18T21:58:46.449Z,78.40
2022-10-18T22:01:16.992Z,78.35
2022-10-18T22:03:46.082Z,78.92
2022-10-18T22:06:16.294Z,79.12
2022-10-18T22:08:46.098Z,78.96
2022-10-18T22:11:14.312Z,79.12
2022-10-18T22:13:44.239Z,78.83
2022-10-18T22:16:15.376Z,79.43
2022-10-18T22:18:44.584Z,79.96
2022-10-18T22:21:14.569Z,80.01
2022-10-18T22:23:44.426Z,80.40
2022-10-18T22:26:15.277Z,80.48
2022-10-18T22:28:46.589Z,80.81
2022-10-18T22:31:16.680Z,80.80
2022-10-18T22:33:45.459Z,80.58
2022-10-18T22:36:13.607Z,80.91
2022-10-18T22:38:41.569Z,80.48
2022-10-18T22:41:12.532Z,80.50
2022-10-18T22:43:41.089Z,80.61
2022-10-18T22:46:12.664Z,80.20
2022-10-18T22:48:41.031Z,80.33
2022-10-18T22:51:09.409Z,80.51
2022-10-18T22:53:38.115Z,80.38
2022-10-18T22:56:07.290Z,80.25
2022-10-18T22:58:35.356Z,81.23
2022-10-18T23:01:04.418Z,81.41
2022-10-18T23:03:33.939Z,81.27
2022-10-18T23:06:02.510Z,81.27
2022-10-18T23:08:31.256Z,81.57
2022-10-18T23:11:00.632Z,81.72
2022-10-18T23:13:29.046Z,81.42
2022-10-18T23:16:04.506Z,81.07
2022-10-18T23:18:34.644Z,81.30
2022-10-18T23:21:04.313Z,81.29
2022-10-18T23:23:35.649Z,81.21
2022-10-18T23:26:05.256Z,81.11
2022-10-18T23:28:35.914Z,81.07
2022-10-18T23:31:09.145Z,81.13
2022-10-18T23:33:39.257Z,80.98
2022-10-18T23:36:09.159Z,80.98
2022-10-18T23:38:38.006Z,81.28
2022-10-18T23:41:06.967Z,81.17
2022-10-18T23:43:35.202Z,81.26
2022-10-18T23:46:03.817Z,81.76
2022-10-18T23:48:32.136Z,81.66
2022-10-18T23:51:01.739Z,81.77
2022-10-18T23:53:29.923Z,82.42
2022-10-18T23:55:59.764Z,81.70
2022-10-18T23:58:29.440Z,82.05
